Deersville, Ohio
Current Conditions -  °F | °C
As of 7:53 AM on Sunday 23 Nov 2014 (Local Time) from KPHD Reporting Station
Overcast Overcast  
Wind Chill: 45°   Ceiling: 8500
Heat Index: 47°   Visibility: 10mi
Dew Point: 31°   Wind: 5mph
Humidity: 54%   Direction: 130°SE
Pressure: 30.06"   Gusts: NA
Location:  40.31°N, 81.19°W
Report Text: KPHD 231253Z AUTO 13004KT 10SM SCT060 OVC085 08/M01 A3006 RMK AO2 SLP181 T00831006
Loading
Personal Weather Stations






























Interactive Weather Map New forecast layout! Learn more

10-Day Weather Forecast

Advertisements
Track Severe Weather on mobile